sensor_id;sensor_type;location;lat;lon;timestamp;P1;durP1;ratioP1;P2;durP2;ratioP2
22068;SDS011;13887;57.196;-2.100;2023-03-23T00:02:26;11.73;;;11.33;;
22068;SDS011;13887;57.196;-2.100;2023-03-23T00:04:58;12.10;;;11.70;;
22068;SDS011;13887;57.196;-2.100;2023-03-23T00:07:25;12.10;;;11.70;;
22068;SDS011;13887;57.196;-2.100;2023-03-23T00:09:53;11.63;;;11.23;;
22068;SDS011;13887;57.196;-2.100;2023-03-23T00:12:23;11.60;;;11.20;;
22068;SDS011;13887;57.196;-2.100;2023-03-23T00:15:01;12.20;;;11.80;;
22068;SDS011;13887;57.196;-2.100;2023-03-23T00:17:32;12.00;;;11.60;;
22068;SDS011;13887;57.196;-2.100;2023-03-23T00:20:04;12.33;;;11.93;;
22068;SDS011;13887;57.196;-2.100;2023-03-23T00:22:30;12.60;;;12.20;;
22068;SDS011;13887;57.196;-2.100;2023-03-23T00:25:05;12.33;;;11.93;;
22068;SDS011;13887;57.196;-2.100;2023-03-23T00:27:33;12.10;;;11.70;;
22068;SDS011;13887;57.196;-2.100;2023-03-23T00:30:00;11.90;;;11.50;;
22068;SDS011;13887;57.196;-2.100;2023-03-23T00:32:26;11.93;;;11.53;;
22068;SDS011;13887;57.196;-2.100;2023-03-23T00:34:56;11.80;;;11.40;;
22068;SDS011;13887;57.196;-2.100;2023-03-23T00:37:24;11.97;;;11.57;;
22068;SDS011;13887;57.196;-2.100;2023-03-23T00:39:50;11.93;;;11.53;;
22068;SDS011;13887;57.196;-2.100;2023-03-23T00:42:17;11.87;;;11.47;;
22068;SDS011;13887;57.196;-2.100;2023-03-23T00:44:43;12.00;;;11.60;;
22068;SDS011;13887;57.196;-2.100;2023-03-23T00:47:10;12.03;;;11.63;;
22068;SDS011;13887;57.196;-2.100;2023-03-23T00:49:37;12.13;;;11.73;;
22068;SDS011;13887;57.196;-2.100;2023-03-23T00:52:04;12.10;;;11.70;;
22068;SDS011;13887;57.196;-2.100;2023-03-23T00:54:31;12.43;;;12.03;;
22068;SDS011;13887;57.196;-2.100;2023-03-23T00:56:58;11.90;;;11.50;;
22068;SDS011;13887;57.196;-2.100;2023-03-23T00:59:24;12.10;;;11.70;;
22068;SDS011;13887;57.196;-2.100;2023-03-23T01:01:50;11.97;;;11.57;;
22068;SDS011;13887;57.196;-2.100;2023-03-23T01:04:16;11.97;;;11.57;;
22068;SDS011;13887;57.196;-2.100;2023-03-23T01:06:43;12.33;;;11.93;;
22068;SDS011;13887;57.196;-2.100;2023-03-23T01:09:11;12.30;;;11.90;;
22068;SDS011;13887;57.196;-2.100;2023-03-23T01:11:40;12.40;;;12.00;;
22068;SDS011;13887;57.196;-2.100;2023-03-23T01:14:07;11.60;;;11.20;;
22068;SDS011;13887;57.196;-2.100;2023-03-23T01:16:33;12.30;;;11.90;;
22068;SDS011;13887;57.196;-2.100;2023-03-23T01:18:59;11.93;;;11.53;;
22068;SDS011;13887;57.196;-2.100;2023-03-23T01:21:26;11.47;;;11.07;;
22068;SDS011;13887;57.196;-2.100;2023-03-23T01:23:51;11.57;;;11.17;;
22068;SDS011;13887;57.196;-2.100;2023-03-23T01:26:19;11.60;;;11.20;;
22068;SDS011;13887;57.196;-2.100;2023-03-23T01:28:46;11.50;;;11.10;;
22068;SDS011;13887;57.196;-2.100;2023-03-23T01:31:13;11.70;;;11.30;;
22068;SDS011;13887;57.196;-2.100;2023-03-23T01:33:44;12.17;;;11.77;;
22068;SDS011;13887;57.196;-2.100;2023-03-23T01:36:14;11.60;;;11.20;;
22068;SDS011;13887;57.196;-2.100;2023-03-23T01:38:44;11.93;;;11.53;;
22068;SDS011;13887;57.196;-2.100;2023-03-23T01:41:11;11.73;;;11.33;;
22068;SDS011;13887;57.196;-2.100;2023-03-23T01:46:46;11.43;;;11.03;;
22068;SDS011;13887;57.196;-2.100;2023-03-23T01:49:17;11.63;;;11.23;;
22068;SDS011;13887;57.196;-2.100;2023-03-23T01:51:56;12.07;;;11.67;;
22068;SDS011;13887;57.196;-2.100;2023-03-23T01:54:45;12.40;;;12.00;;
22068;SDS011;13887;57.196;-2.100;2023-03-23T01:57:14;11.87;;;11.47;;
22068;SDS011;13887;57.196;-2.100;2023-03-23T01:59:43;11.80;;;11.40;;
22068;SDS011;13887;57.196;-2.100;2023-03-23T02:02:17;11.90;;;11.50;;
22068;SDS011;13887;57.196;-2.100;2023-03-23T02:04:45;11.90;;;11.50;;
22068;SDS011;13887;57.196;-2.100;2023-03-23T02:07:12;12.13;;;11.73;;
22068;SDS011;13887;57.196;-2.100;2023-03-23T02:09:40;11.90;;;11.50;;
22068;SDS011;13887;57.196;-2.100;2023-03-23T02:12:06;12.10;;;11.70;;
22068;SDS011;13887;57.196;-2.100;2023-03-23T02:14:34;11.87;;;11.47;;
22068;SDS011;13887;57.196;-2.100;2023-03-23T02:28:48;12.43;;;12.03;;
22068;SDS011;13887;57.196;-2.100;2023-03-23T02:37:52;12.53;;;12.13;;
22068;SDS011;13887;57.196;-2.100;2023-03-23T02:39:56;12.17;;;11.77;;
22068;SDS011;13887;57.196;-2.100;2023-03-23T02:42:32;12.37;;;11.97;;
22068;SDS011;13887;57.196;-2.100;2023-03-23T02:45:02;11.93;;;11.53;;
22068;SDS011;13887;57.196;-2.100;2023-03-23T02:47:30;11.80;;;11.40;;
22068;SDS011;13887;57.196;-2.100;2023-03-23T02:49:58;12.03;;;11.63;;
22068;SDS011;13887;57.196;-2.100;2023-03-23T02:52:29;12.20;;;11.80;;
22068;SDS011;13887;57.196;-2.100;2023-03-23T02:54:58;12.50;;;12.10;;
22068;SDS011;13887;57.196;-2.100;2023-03-23T02:57:27;12.40;;;12.00;;
22068;SDS011;13887;57.196;-2.100;2023-03-23T02:59:55;12.30;;;11.90;;
22068;SDS011;13887;57.196;-2.100;2023-03-23T03:02:25;12.40;;;12.00;;
22068;SDS011;13887;57.196;-2.100;2023-03-23T03:10:31;12.07;;;11.67;;
22068;SDS011;13887;57.196;-2.100;2023-03-23T03:19:04;12.13;;;11.73;;
22068;SDS011;13887;57.196;-2.100;2023-03-23T03:21:39;12.07;;;11.67;;
22068;SDS011;13887;57.196;-2.100;2023-03-23T03:24:08;12.17;;;11.77;;
22068;SDS011;13887;57.196;-2.100;2023-03-23T03:26:41;11.87;;;11.47;;
22068;SDS011;13887;57.196;-2.100;2023-03-23T03:29:21;12.07;;;11.67;;
22068;SDS011;13887;57.196;-2.100;2023-03-23T03:31:52;12.03;;;11.63;;
22068;SDS011;13887;57.196;-2.100;2023-03-23T03:34:22;12.07;;;11.67;;
22068;SDS011;13887;57.196;-2.100;2023-03-23T03:36:51;12.30;;;11.90;;
22068;SDS011;13887;57.196;-2.100;2023-03-23T03:39:21;12.23;;;11.83;;
22068;SDS011;13887;57.196;-2.100;2023-03-23T03:41:47;11.77;;;11.37;;
22068;SDS011;13887;57.196;-2.100;2023-03-23T03:44:14;12.60;;;12.20;;
22068;SDS011;13887;57.196;-2.100;2023-03-23T03:46:40;11.83;;;11.43;;
22068;SDS011;13887;57.196;-2.100;2023-03-23T03:49:07;12.20;;;11.80;;
22068;SDS011;13887;57.196;-2.100;2023-03-23T03:51:37;12.13;;;11.73;;
22068;SDS011;13887;57.196;-2.100;2023-03-23T03:54:05;12.10;;;11.70;;
22068;SDS011;13887;57.196;-2.100;2023-03-23T03:56:31;11.53;;;11.13;;
22068;SDS011;13887;57.196;-2.100;2023-03-23T03:59:30;11.67;;;11.27;;
22068;SDS011;13887;57.196;-2.100;2023-03-23T04:02:16;11.67;;;11.27;;
22068;SDS011;13887;57.196;-2.100;2023-03-23T04:04:47;12.10;;;11.70;;
22068;SDS011;13887;57.196;-2.100;2023-03-23T04:07:14;11.77;;;11.37;;
22068;SDS011;13887;57.196;-2.100;2023-03-23T04:09:45;11.83;;;11.43;;
22068;SDS011;13887;57.196;-2.100;2023-03-23T04:12:15;11.90;;;11.50;;
22068;SDS011;13887;57.196;-2.100;2023-03-23T04:14:57;11.93;;;11.53;;
22068;SDS011;13887;57.196;-2.100;2023-03-23T04:17:30;12.10;;;11.70;;
22068;SDS011;13887;57.196;-2.100;2023-03-23T04:19:56;11.93;;;11.53;;
22068;SDS011;13887;57.196;-2.100;2023-03-23T04:22:23;11.90;;;11.50;;
22068;SDS011;13887;57.196;-2.100;2023-03-23T04:24:57;11.80;;;11.40;;
22068;SDS011;13887;57.196;-2.100;2023-03-23T04:27:26;12.07;;;11.67;;
22068;SDS011;13887;57.196;-2.100;2023-03-23T04:29:55;12.00;;;11.60;;
22068;SDS011;13887;57.196;-2.100;2023-03-23T04:32:41;12.00;;;11.60;;
22068;SDS011;13887;57.196;-2.100;2023-03-23T04:35:09;11.80;;;11.40;;
22068;SDS011;13887;57.196;-2.100;2023-03-23T04:37:46;11.73;;;11.33;;
22068;SDS011;13887;57.196;-2.100;2023-03-23T04:40:16;11.83;;;11.43;;
22068;SDS011;13887;57.196;-2.100;2023-03-23T04:42:51;11.87;;;11.47;;
22068;SDS011;13887;57.196;-2.100;2023-03-23T04:45:58;11.53;;;11.13;;
22068;SDS011;13887;57.196;-2.100;2023-03-23T04:48:28;11.80;;;11.40;;
22068;SDS011;13887;57.196;-2.100;2023-03-23T04:51:08;11.13;;;10.83;;
22068;SDS011;13887;57.196;-2.100;2023-03-23T04:53:36;11.80;;;11.40;;
22068;SDS011;13887;57.196;-2.100;2023-03-23T04:56:02;11.47;;;11.07;;
22068;SDS011;13887;57.196;-2.100;2023-03-23T04:58:34;11.90;;;11.50;;
22068;SDS011;13887;57.196;-2.100;2023-03-23T05:01:20;11.47;;;11.07;;
22068;SDS011;13887;57.196;-2.100;2023-03-23T05:04:09;11.73;;;11.33;;
22068;SDS011;13887;57.196;-2.100;2023-03-23T05:06:36;11.80;;;11.40;;
22068;SDS011;13887;57.196;-2.100;2023-03-23T05:09:10;11.63;;;11.23;;
22068;SDS011;13887;57.196;-2.100;2023-03-23T05:11:37;11.70;;;11.30;;
22068;SDS011;13887;57.196;-2.100;2023-03-23T05:14:04;12.73;;;12.33;;
22068;SDS011;13887;57.196;-2.100;2023-03-23T05:16:30;12.93;;;12.53;;
22068;SDS011;13887;57.196;-2.100;2023-03-23T05:18:57;12.40;;;12.00;;
22068;SDS011;13887;57.196;-2.100;2023-03-23T05:21:25;13.10;;;12.70;;
22068;SDS011;13887;57.196;-2.100;2023-03-23T05:23:53;12.60;;;12.20;;
22068;SDS011;13887;57.196;-2.100;2023-03-23T05:26:21;13.17;;;12.77;;
22068;SDS011;13887;57.196;-2.100;2023-03-23T05:28:51;13.20;;;12.80;;
22068;SDS011;13887;57.196;-2.100;2023-03-23T05:31:23;13.07;;;12.67;;
22068;SDS011;13887;57.196;-2.100;2023-03-23T05:33:50;13.50;;;13.00;;
22068;SDS011;13887;57.196;-2.100;2023-03-23T05:36:39;13.57;;;13.07;;
22068;SDS011;13887;57.196;-2.100;2023-03-23T05:39:34;13.47;;;12.97;;
22068;SDS011;13887;57.196;-2.100;2023-03-23T05:42:23;13.63;;;13.13;;
22068;SDS011;13887;57.196;-2.100;2023-03-23T05:45:12;13.60;;;13.10;;
22068;SDS011;13887;57.196;-2.100;2023-03-23T05:47:39;13.33;;;12.87;;
22068;SDS011;13887;57.196;-2.100;2023-03-23T05:50:10;13.37;;;12.87;;
22068;SDS011;13887;57.196;-2.100;2023-03-23T05:52:37;12.77;;;12.37;;
22068;SDS011;13887;57.196;-2.100;2023-03-23T05:55:06;13.03;;;12.63;;
22068;SDS011;13887;57.196;-2.100;2023-03-23T05:57:35;12.90;;;12.50;;
22068;SDS011;13887;57.196;-2.100;2023-03-23T06:00:21;12.90;;;12.50;;
22068;SDS011;13887;57.196;-2.100;2023-03-23T06:02:57;13.33;;;12.90;;
22068;SDS011;13887;57.196;-2.100;2023-03-23T06:05:32;12.93;;;12.53;;
22068;SDS011;13887;57.196;-2.100;2023-03-23T06:07:58;13.23;;;12.83;;
22068;SDS011;13887;57.196;-2.100;2023-03-23T06:10:25;13.03;;;12.63;;
22068;SDS011;13887;57.196;-2.100;2023-03-23T06:12:56;13.17;;;12.77;;
22068;SDS011;13887;57.196;-2.100;2023-03-23T06:15:42;13.33;;;12.87;;
22068;SDS011;13887;57.196;-2.100;2023-03-23T06:18:18;12.93;;;12.53;;
22068;SDS011;13887;57.196;-2.100;2023-03-23T06:21:09;12.87;;;12.47;;
22068;SDS011;13887;57.196;-2.100;2023-03-23T06:23:58;13.20;;;12.80;;
22068;SDS011;13887;57.196;-2.100;2023-03-23T06:26:28;13.57;;;13.07;;
22068;SDS011;13887;57.196;-2.100;2023-03-23T06:28:59;12.97;;;12.57;;
22068;SDS011;13887;57.196;-2.100;2023-03-23T06:31:28;13.27;;;12.83;;
22068;SDS011;13887;57.196;-2.100;2023-03-23T06:33:54;13.40;;;12.90;;
22068;SDS011;13887;57.196;-2.100;2023-03-23T06:36:23;12.90;;;12.50;;
22068;SDS011;13887;57.196;-2.100;2023-03-23T06:39:15;13.67;;;13.17;;
22068;SDS011;13887;57.196;-2.100;2023-03-23T06:41:58;13.60;;;13.10;;
22068;SDS011;13887;57.196;-2.100;2023-03-23T06:44:30;13.03;;;12.63;;
22068;SDS011;13887;57.196;-2.100;2023-03-23T06:46:56;13.00;;;12.60;;
22068;SDS011;13887;57.196;-2.100;2023-03-23T06:49:25;12.43;;;12.03;;
22068;SDS011;13887;57.196;-2.100;2023-03-23T06:52:11;13.00;;;12.60;;
22068;SDS011;13887;57.196;-2.100;2023-03-23T06:54:37;13.07;;;12.67;;
22068;SDS011;13887;57.196;-2.100;2023-03-23T06:57:04;13.53;;;13.03;;
22068;SDS011;13887;57.196;-2.100;2023-03-23T06:59:31;13.30;;;12.90;;
22068;SDS011;13887;57.196;-2.100;2023-03-23T07:01:57;13.90;;;13.40;;
22068;SDS011;13887;57.196;-2.100;2023-03-23T07:04:23;13.93;;;13.43;;
22068;SDS011;13887;57.196;-2.100;2023-03-23T07:06:58;13.50;;;13.00;;
22068;SDS011;13887;57.196;-2.100;2023-03-23T07:09:24;13.13;;;12.73;;
22068;SDS011;13887;57.196;-2.100;2023-03-23T07:11:51;12.97;;;12.57;;
22068;SDS011;13887;57.196;-2.100;2023-03-23T07:14:27;12.80;;;12.40;;
22068;SDS011;13887;57.196;-2.100;2023-03-23T07:16:53;13.83;;;13.33;;
22068;SDS011;13887;57.196;-2.100;2023-03-23T07:19:19;13.10;;;12.70;;
22068;SDS011;13887;57.196;-2.100;2023-03-23T07:21:45;12.90;;;12.50;;
22068;SDS011;13887;57.196;-2.100;2023-03-23T07:24:12;13.13;;;12.73;;
22068;SDS011;13887;57.196;-2.100;2023-03-23T07:26:55;13.13;;;12.73;;
22068;SDS011;13887;57.196;-2.100;2023-03-23T07:29:21;13.60;;;13.10;;
22068;SDS011;13887;57.196;-2.100;2023-03-23T07:31:55;12.90;;;12.50;;
22068;SDS011;13887;57.196;-2.100;2023-03-23T07:34:21;12.67;;;12.27;;
22068;SDS011;13887;57.196;-2.100;2023-03-23T07:37:03;12.87;;;12.47;;
22068;SDS011;13887;57.196;-2.100;2023-03-23T07:39:33;13.13;;;12.73;;
22068;SDS011;13887;57.196;-2.100;2023-03-23T07:42:00;12.80;;;12.40;;
22068;SDS011;13887;57.196;-2.100;2023-03-23T07:44:48;12.50;;;12.10;;
22068;SDS011;13887;57.196;-2.100;2023-03-23T07:47:15;12.50;;;12.10;;
22068;SDS011;13887;57.196;-2.100;2023-03-23T07:49:45;12.47;;;12.07;;
22068;SDS011;13887;57.196;-2.100;2023-03-23T07:52:17;12.20;;;11.80;;
22068;SDS011;13887;57.196;-2.100;2023-03-23T07:54:43;12.53;;;12.13;;
22068;SDS011;13887;57.196;-2.100;2023-03-23T07:57:38;12.40;;;12.00;;
22068;SDS011;13887;57.196;-2.100;2023-03-23T08:00:05;12.27;;;11.87;;
22068;SDS011;13887;57.196;-2.100;2023-03-23T08:02:41;12.10;;;11.70;;
22068;SDS011;13887;57.196;-2.100;2023-03-23T08:05:30;12.13;;;11.73;;
22068;SDS011;13887;57.196;-2.100;2023-03-23T08:08:12;12.20;;;11.80;;
22068;SDS011;13887;57.196;-2.100;2023-03-23T08:10:58;12.60;;;12.20;;
22068;SDS011;13887;57.196;-2.100;2023-03-23T08:13:43;12.23;;;11.83;;
22068;SDS011;13887;57.196;-2.100;2023-03-23T08:16:27;12.87;;;12.47;;
22068;SDS011;13887;57.196;-2.100;2023-03-23T08:18:53;12.60;;;12.20;;
22068;SDS011;13887;57.196;-2.100;2023-03-23T08:21:54;12.60;;;12.20;;
22068;SDS011;13887;57.196;-2.100;2023-03-23T08:24:52;12.33;;;11.93;;
22068;SDS011;13887;57.196;-2.100;2023-03-23T08:27:29;12.30;;;11.90;;
22068;SDS011;13887;57.196;-2.100;2023-03-23T08:30:24;11.97;;;11.57;;
22068;SDS011;13887;57.196;-2.100;2023-03-23T08:33:23;11.90;;;11.50;;
22068;SDS011;13887;57.196;-2.100;2023-03-23T08:35:59;12.30;;;11.90;;
22068;SDS011;13887;57.196;-2.100;2023-03-23T08:38:53;11.80;;;11.40;;
22068;SDS011;13887;57.196;-2.100;2023-03-23T08:41:41;12.80;;;12.40;;
22068;SDS011;13887;57.196;-2.100;2023-03-23T08:44:17;12.70;;;12.30;;
22068;SDS011;13887;57.196;-2.100;2023-03-23T08:47:10;12.57;;;12.17;;
22068;SDS011;13887;57.196;-2.100;2023-03-23T08:50:02;12.20;;;11.80;;
22068;SDS011;13887;57.196;-2.100;2023-03-23T08:52:47;12.27;;;11.87;;
22068;SDS011;13887;57.196;-2.100;2023-03-23T08:55:34;12.67;;;12.27;;
22068;SDS011;13887;57.196;-2.100;2023-03-23T08:58:30;13.20;;;12.70;;
22068;SDS011;13887;57.196;-2.100;2023-03-23T09:01:15;13.07;;;12.63;;
22068;SDS011;13887;57.196;-2.100;2023-03-23T09:04:19;12.40;;;12.00;;
22068;SDS011;13887;57.196;-2.100;2023-03-23T09:07:05;13.53;;;13.03;;
22068;SDS011;13887;57.196;-2.100;2023-03-23T09:09:32;13.07;;;12.67;;
22068;SDS011;13887;57.196;-2.100;2023-03-23T09:11:59;12.93;;;12.53;;
22068;SDS011;13887;57.196;-2.100;2023-03-23T09:14:26;12.83;;;12.43;;
22068;SDS011;13887;57.196;-2.100;2023-03-23T09:16:52;12.63;;;12.23;;
22068;SDS011;13887;57.196;-2.100;2023-03-23T09:19:18;12.83;;;12.43;;
22068;SDS011;13887;57.196;-2.100;2023-03-23T09:21:44;13.40;;;12.90;;
22068;SDS011;13887;57.196;-2.100;2023-03-23T09:24:13;13.27;;;12.80;;
22068;SDS011;13887;57.196;-2.100;2023-03-23T09:26:40;13.40;;;12.90;;
22068;SDS011;13887;57.196;-2.100;2023-03-23T09:29:06;13.00;;;12.60;;
22068;SDS011;13887;57.196;-2.100;2023-03-23T09:31:32;12.83;;;12.43;;
22068;SDS011;13887;57.196;-2.100;2023-03-23T09:33:58;12.67;;;12.27;;
22068;SDS011;13887;57.196;-2.100;2023-03-23T09:36:24;12.73;;;12.33;;
22068;SDS011;13887;57.196;-2.100;2023-03-23T09:38:57;12.70;;;12.30;;
22068;SDS011;13887;57.196;-2.100;2023-03-23T09:49:41;13.37;;;12.87;;
22068;SDS011;13887;57.196;-2.100;2023-03-23T09:52:16;12.87;;;12.47;;
22068;SDS011;13887;57.196;-2.100;2023-03-23T09:54:44;12.50;;;12.10;;
22068;SDS011;13887;57.196;-2.100;2023-03-23T10:05:41;13.30;;;12.80;;
22068;SDS011;13887;57.196;-2.100;2023-03-23T10:08:13;12.97;;;12.57;;
22068;SDS011;13887;57.196;-2.100;2023-03-23T10:13:28;12.57;;;12.17;;
22068;SDS011;13887;57.196;-2.100;2023-03-23T10:16:00;12.93;;;12.53;;
22068;SDS011;13887;57.196;-2.100;2023-03-23T10:18:36;13.00;;;12.60;;
22068;SDS011;13887;57.196;-2.100;2023-03-23T10:21:19;13.60;;;13.10;;
22068;SDS011;13887;57.196;-2.100;2023-03-23T10:23:58;12.40;;;12.00;;
22068;SDS011;13887;57.196;-2.100;2023-03-23T10:29:32;12.90;;;12.50;;
22068;SDS011;13887;57.196;-2.100;2023-03-23T10:32:09;12.47;;;12.07;;
22068;SDS011;13887;57.196;-2.100;2023-03-23T10:39:46;12.70;;;12.30;;
22068;SDS011;13887;57.196;-2.100;2023-03-23T10:44:51;12.80;;;12.40;;
22068;SDS011;13887;57.196;-2.100;2023-03-23T10:47:18;12.77;;;12.37;;
22068;SDS011;13887;57.196;-2.100;2023-03-23T10:49:47;12.90;;;12.50;;
22068;SDS011;13887;57.196;-2.100;2023-03-23T10:54:55;12.70;;;12.30;;
22068;SDS011;13887;57.196;-2.100;2023-03-23T10:57:27;12.27;;;11.87;;
22068;SDS011;13887;57.196;-2.100;2023-03-23T11:00:02;12.77;;;12.37;;
22068;SDS011;13887;57.196;-2.100;2023-03-23T11:02:40;12.47;;;12.07;;
22068;SDS011;13887;57.196;-2.100;2023-03-23T11:05:16;12.67;;;12.27;;
22068;SDS011;13887;57.196;-2.100;2023-03-23T11:07:54;12.20;;;11.80;;
22068;SDS011;13887;57.196;-2.100;2023-03-23T11:10:35;12.87;;;12.47;;
22068;SDS011;13887;57.196;-2.100;2023-03-23T11:13:03;12.70;;;12.30;;
22068;SDS011;13887;57.196;-2.100;2023-03-23T11:15:30;12.97;;;12.57;;
22068;SDS011;13887;57.196;-2.100;2023-03-23T11:18:04;13.40;;;12.90;;
22068;SDS011;13887;57.196;-2.100;2023-03-23T11:20:35;12.70;;;12.30;;
22068;SDS011;13887;57.196;-2.100;2023-03-23T11:26:20;12.27;;;11.87;;
22068;SDS011;13887;57.196;-2.100;2023-03-23T11:28:48;12.73;;;12.33;;
22068;SDS011;13887;57.196;-2.100;2023-03-23T11:31:23;12.50;;;12.10;;
22068;SDS011;13887;57.196;-2.100;2023-03-23T11:33:59;11.87;;;11.47;;
22068;SDS011;13887;57.196;-2.100;2023-03-23T11:36:37;12.77;;;12.37;;
22068;SDS011;13887;57.196;-2.100;2023-03-23T11:42:17;12.70;;;12.30;;
22068;SDS011;13887;57.196;-2.100;2023-03-23T11:44:46;12.30;;;11.90;;
22068;SDS011;13887;57.196;-2.100;2023-03-23T11:50:30;12.00;;;11.60;;
22068;SDS011;13887;57.196;-2.100;2023-03-23T11:56:37;12.40;;;12.00;;
22068;SDS011;13887;57.196;-2.100;2023-03-23T11:59:12;11.43;;;11.03;;
22068;SDS011;13887;57.196;-2.100;2023-03-23T12:01:43;12.33;;;11.93;;
22068;SDS011;13887;57.196;-2.100;2023-03-23T12:12:38;12.47;;;12.07;;
22068;SDS011;13887;57.196;-2.100;2023-03-23T12:27:58;12.00;;;11.60;;
22068;SDS011;13887;57.196;-2.100;2023-03-23T12:39:05;12.30;;;11.90;;
22068;SDS011;13887;57.196;-2.100;2023-03-23T12:44:46;12.23;;;11.83;;
22068;SDS011;13887;57.196;-2.100;2023-03-23T12:50:07;12.40;;;12.00;;
22068;SDS011;13887;57.196;-2.100;2023-03-23T12:52:54;11.90;;;11.50;;
22068;SDS011;13887;57.196;-2.100;2023-03-23T13:00:50;12.80;;;12.40;;
22068;SDS011;13887;57.196;-2.100;2023-03-23T13:03:32;12.80;;;12.40;;
22068;SDS011;13887;57.196;-2.100;2023-03-23T13:08:49;12.80;;;12.40;;
22068;SDS011;13887;57.196;-2.100;2023-03-23T13:11:23;13.03;;;12.63;;
22068;SDS011;13887;57.196;-2.100;2023-03-23T13:13:59;13.40;;;12.90;;
22068;SDS011;13887;57.196;-2.100;2023-03-23T13:22:07;13.07;;;12.67;;
22068;SDS011;13887;57.196;-2.100;2023-03-23T13:24:41;12.93;;;12.53;;
22068;SDS011;13887;57.196;-2.100;2023-03-23T13:27:16;13.17;;;12.77;;
22068;SDS011;13887;57.196;-2.100;2023-03-23T13:29:45;12.87;;;12.47;;
22068;SDS011;13887;57.196;-2.100;2023-03-23T13:32:12;12.70;;;12.30;;
22068;SDS011;13887;57.196;-2.100;2023-03-23T13:34:42;12.80;;;12.40;;
22068;SDS011;13887;57.196;-2.100;2023-03-23T13:37:19;12.87;;;12.47;;
22068;SDS011;13887;57.196;-2.100;2023-03-23T13:39:56;12.90;;;12.50;;
22068;SDS011;13887;57.196;-2.100;2023-03-23T13:42:28;12.63;;;12.23;;
22068;SDS011;13887;57.196;-2.100;2023-03-23T13:47:48;12.70;;;12.30;;
22068;SDS011;13887;57.196;-2.100;2023-03-23T13:57:53;12.20;;;11.80;;
22068;SDS011;13887;57.196;-2.100;2023-03-23T14:03:01;12.90;;;12.50;;
22068;SDS011;13887;57.196;-2.100;2023-03-23T14:06:22;12.70;;;12.30;;
22068;SDS011;13887;57.196;-2.100;2023-03-23T14:08:45;12.93;;;12.53;;
22068;SDS011;13887;57.196;-2.100;2023-03-23T14:11:16;13.13;;;12.73;;
22068;SDS011;13887;57.196;-2.100;2023-03-23T14:14:12;12.90;;;12.50;;
22068;SDS011;13887;57.196;-2.100;2023-03-23T14:16:43;13.03;;;12.63;;
22068;SDS011;13887;57.196;-2.100;2023-03-23T14:19:19;12.87;;;12.47;;
22068;SDS011;13887;57.196;-2.100;2023-03-23T14:21:53;13.30;;;12.90;;
22068;SDS011;13887;57.196;-2.100;2023-03-23T14:24:22;13.00;;;12.60;;
22068;SDS011;13887;57.196;-2.100;2023-03-23T14:29:42;12.77;;;12.37;;
22068;SDS011;13887;57.196;-2.100;2023-03-23T14:32:18;13.17;;;12.77;;
22068;SDS011;13887;57.196;-2.100;2023-03-23T14:34:51;12.80;;;12.40;;
22068;SDS011;13887;57.196;-2.100;2023-03-23T14:37:17;13.00;;;12.60;;
22068;SDS011;13887;57.196;-2.100;2023-03-23T14:39:44;12.60;;;12.20;;
22068;SDS011;13887;57.196;-2.100;2023-03-23T14:42:13;13.03;;;12.63;;
22068;SDS011;13887;57.196;-2.100;2023-03-23T14:44:44;12.80;;;12.40;;
22068;SDS011;13887;57.196;-2.100;2023-03-23T14:47:16;12.93;;;12.53;;
22068;SDS011;13887;57.196;-2.100;2023-03-23T14:49:47;13.03;;;12.63;;
22068;SDS011;13887;57.196;-2.100;2023-03-23T14:52:20;12.83;;;12.43;;
22068;SDS011;13887;57.196;-2.100;2023-03-23T14:54:48;13.00;;;12.60;;
22068;SDS011;13887;57.196;-2.100;2023-03-23T14:59:44;12.70;;;12.30;;
22068;SDS011;13887;57.196;-2.100;2023-03-23T15:02:23;12.63;;;12.23;;
22068;SDS011;13887;57.196;-2.100;2023-03-23T15:05:03;13.80;;;13.30;;
22068;SDS011;13887;57.196;-2.100;2023-03-23T15:07:35;13.00;;;12.60;;
22068;SDS011;13887;57.196;-2.100;2023-03-23T15:10:08;12.80;;;12.40;;
22068;SDS011;13887;57.196;-2.100;2023-03-23T15:12:40;12.87;;;12.47;;
22068;SDS011;13887;57.196;-2.100;2023-03-23T15:17:56;12.60;;;12.20;;
22068;SDS011;13887;57.196;-2.100;2023-03-23T15:20:25;12.70;;;12.30;;
22068;SDS011;13887;57.196;-2.100;2023-03-23T15:23:15;12.53;;;12.13;;
22068;SDS011;13887;57.196;-2.100;2023-03-23T15:25:47;12.20;;;11.80;;
22068;SDS011;13887;57.196;-2.100;2023-03-23T15:28:16;12.73;;;12.33;;
22068;SDS011;13887;57.196;-2.100;2023-03-23T15:30:48;12.40;;;12.00;;
22068;SDS011;13887;57.196;-2.100;2023-03-23T15:33:17;12.67;;;12.27;;
22068;SDS011;13887;57.196;-2.100;2023-03-23T15:35:49;12.47;;;12.07;;
22068;SDS011;13887;57.196;-2.100;2023-03-23T15:40:59;12.90;;;12.50;;
22068;SDS011;13887;57.196;-2.100;2023-03-23T15:43:30;12.90;;;12.50;;
22068;SDS011;13887;57.196;-2.100;2023-03-23T15:48:32;11.83;;;11.43;;
22068;SDS011;13887;57.196;-2.100;2023-03-23T15:51:10;11.80;;;11.40;;
22068;SDS011;13887;57.196;-2.100;2023-03-23T15:53:38;13.30;;;12.90;;
22068;SDS011;13887;57.196;-2.100;2023-03-23T15:56:05;12.63;;;12.23;;
22068;SDS011;13887;57.196;-2.100;2023-03-23T15:58:32;11.97;;;11.57;;
22068;SDS011;13887;57.196;-2.100;2023-03-23T16:01:02;12.07;;;11.67;;
22068;SDS011;13887;57.196;-2.100;2023-03-23T16:03:37;11.77;;;11.37;;
22068;SDS011;13887;57.196;-2.100;2023-03-23T16:06:14;12.13;;;11.73;;
22068;SDS011;13887;57.196;-2.100;2023-03-23T16:08:53;12.33;;;11.93;;
22068;SDS011;13887;57.196;-2.100;2023-03-23T16:11:22;12.20;;;11.80;;
22068;SDS011;13887;57.196;-2.100;2023-03-23T16:13:50;12.13;;;11.73;;
22068;SDS011;13887;57.196;-2.100;2023-03-23T16:16:20;11.80;;;11.40;;
22068;SDS011;13887;57.196;-2.100;2023-03-23T16:18:50;12.10;;;11.70;;
22068;SDS011;13887;57.196;-2.100;2023-03-23T16:21:17;11.90;;;11.50;;
22068;SDS011;13887;57.196;-2.100;2023-03-23T16:23:44;11.33;;;10.93;;
22068;SDS011;13887;57.196;-2.100;2023-03-23T16:26:12;11.70;;;11.30;;
22068;SDS011;13887;57.196;-2.100;2023-03-23T16:28:40;11.63;;;11.23;;
22068;SDS011;13887;57.196;-2.100;2023-03-23T16:31:08;11.80;;;11.40;;
22068;SDS011;13887;57.196;-2.100;2023-03-23T16:33:35;11.87;;;11.47;;
22068;SDS011;13887;57.196;-2.100;2023-03-23T16:36:02;12.20;;;11.80;;
22068;SDS011;13887;57.196;-2.100;2023-03-23T16:38:29;11.70;;;11.30;;
22068;SDS011;13887;57.196;-2.100;2023-03-23T16:40:56;12.10;;;11.70;;
22068;SDS011;13887;57.196;-2.100;2023-03-23T16:43:23;12.37;;;11.97;;
22068;SDS011;13887;57.196;-2.100;2023-03-23T16:45:50;11.67;;;11.27;;
22068;SDS011;13887;57.196;-2.100;2023-03-23T16:48:22;12.00;;;11.60;;
22068;SDS011;13887;57.196;-2.100;2023-03-23T16:50:49;12.30;;;11.90;;
22068;SDS011;13887;57.196;-2.100;2023-03-23T16:53:17;11.50;;;11.10;;
22068;SDS011;13887;57.196;-2.100;2023-03-23T16:55:44;12.30;;;11.90;;
22068;SDS011;13887;57.196;-2.100;2023-03-23T16:58:14;11.90;;;11.50;;
22068;SDS011;13887;57.196;-2.100;2023-03-23T17:00:45;12.40;;;12.00;;
22068;SDS011;13887;57.196;-2.100;2023-03-23T17:03:15;11.20;;;10.90;;
22068;SDS011;13887;57.196;-2.100;2023-03-23T17:05:47;11.90;;;11.50;;
22068;SDS011;13887;57.196;-2.100;2023-03-23T17:08:15;11.57;;;11.17;;
22068;SDS011;13887;57.196;-2.100;2023-03-23T17:10:42;10.70;;;10.40;;
22068;SDS011;13887;57.196;-2.100;2023-03-23T17:13:10;11.20;;;10.90;;
22068;SDS011;13887;57.196;-2.100;2023-03-23T17:15:38;11.70;;;11.30;;